sensor_id;sensor_type;location;lat;lon;timestamp;P1;durP1;ratioP1;P2;durP2;ratioP2
72649;SDS011;61467;50.674;4.618;2022-09-09T00:01:00;4.63;;;0.98;;
72649;SDS011;61467;50.674;4.618;2022-09-09T00:03:37;3.67;;;0.85;;
72649;SDS011;61467;50.674;4.618;2022-09-09T00:06:11;5.53;;;1.10;;
72649;SDS011;61467;50.674;4.618;2022-09-09T00:08:48;5.70;;;0.90;;
72649;SDS011;61467;50.674;4.618;2022-09-09T00:11:24;4.73;;;0.73;;
72649;SDS011;61467;50.674;4.618;2022-09-09T00:13:55;4.18;;;0.90;;
72649;SDS011;61467;50.674;4.618;2022-09-09T00:16:27;4.03;;;1.00;;
72649;SDS011;61467;50.674;4.618;2022-09-09T00:18:57;3.53;;;0.77;;
72649;SDS011;61467;50.674;4.618;2022-09-09T00:21:31;4.13;;;0.80;;
72649;SDS011;61467;50.674;4.618;2022-09-09T00:23:59;4.43;;;0.80;;
72649;SDS011;61467;50.674;4.618;2022-09-09T00:26:30;6.07;;;0.80;;
72649;SDS011;61467;50.674;4.618;2022-09-09T00:29:03;5.82;;;1.00;;
72649;SDS011;61467;50.674;4.618;2022-09-09T00:31:36;4.78;;;1.00;;
72649;SDS011;61467;50.674;4.618;2022-09-09T00:34:05;5.75;;;0.90;;
72649;SDS011;61467;50.674;4.618;2022-09-09T00:36:38;4.00;;;0.90;;
72649;SDS011;61467;50.674;4.618;2022-09-09T00:39:05;4.53;;;1.00;;
72649;SDS011;61467;50.674;4.618;2022-09-09T00:41:42;4.25;;;0.90;;
72649;SDS011;61467;50.674;4.618;2022-09-09T00:44:21;3.60;;;0.80;;
72649;SDS011;61467;50.674;4.618;2022-09-09T00:47:06;5.22;;;1.13;;
72649;SDS011;61467;50.674;4.618;2022-09-09T00:49:46;4.80;;;0.83;;
72649;SDS011;61467;50.674;4.618;2022-09-09T00:52:28;6.55;;;0.80;;
72649;SDS011;61467;50.674;4.618;2022-09-09T00:55:05;5.93;;;0.90;;
72649;SDS011;61467;50.674;4.618;2022-09-09T00:57:36;6.95;;;1.00;;
72649;SDS011;61467;50.674;4.618;2022-09-09T01:00:19;4.90;;;0.85;;
72649;SDS011;61467;50.674;4.618;2022-09-09T01:02:53;7.73;;;1.30;;
72649;SDS011;61467;50.674;4.618;2022-09-09T01:05:29;5.75;;;1.10;;
72649;SDS011;61467;50.674;4.618;2022-09-09T01:08:11;6.43;;;1.00;;
72649;SDS011;61467;50.674;4.618;2022-09-09T01:10:50;5.20;;;0.93;;
72649;SDS011;61467;50.674;4.618;2022-09-09T01:13:20;6.75;;;1.67;;
72649;SDS011;61467;50.674;4.618;2022-09-09T01:15:51;4.37;;;0.97;;
72649;SDS011;61467;50.674;4.618;2022-09-09T01:18:20;7.60;;;1.13;;
72649;SDS011;61467;50.674;4.618;2022-09-09T01:20:53;5.80;;;0.90;;
72649;SDS011;61467;50.674;4.618;2022-09-09T01:23:30;4.95;;;1.08;;
72649;SDS011;61467;50.674;4.618;2022-09-09T01:26:09;7.20;;;1.50;;
72649;SDS011;61467;50.674;4.618;2022-09-09T01:28:42;5.80;;;1.10;;
72649;SDS011;61467;50.674;4.618;2022-09-09T01:31:12;5.40;;;1.30;;
72649;SDS011;61467;50.674;4.618;2022-09-09T01:33:43;8.85;;;1.42;;
72649;SDS011;61467;50.674;4.618;2022-09-09T01:36:10;4.72;;;0.90;;
72649;SDS011;61467;50.674;4.618;2022-09-09T01:38:41;5.68;;;0.98;;
72649;SDS011;61467;50.674;4.618;2022-09-09T01:41:09;6.73;;;0.90;;
72649;SDS011;61467;50.674;4.618;2022-09-09T01:43:36;4.80;;;1.10;;
72649;SDS011;61467;50.674;4.618;2022-09-09T01:46:03;9.23;;;1.10;;
72649;SDS011;61467;50.674;4.618;2022-09-09T01:48:32;5.65;;;0.90;;
72649;SDS011;61467;50.674;4.618;2022-09-09T01:50:59;3.75;;;0.95;;
72649;SDS011;61467;50.674;4.618;2022-09-09T01:53:26;5.83;;;1.47;;
72649;SDS011;61467;50.674;4.618;2022-09-09T01:55:56;5.00;;;0.85;;
72649;SDS011;61467;50.674;4.618;2022-09-09T01:58:34;5.78;;;1.10;;
72649;SDS011;61467;50.674;4.618;2022-09-09T02:01:11;5.40;;;1.00;;
72649;SDS011;61467;50.674;4.618;2022-09-09T02:03:41;5.82;;;1.20;;
72649;SDS011;61467;50.674;4.618;2022-09-09T02:06:14;6.67;;;1.23;;
72649;SDS011;61467;50.674;4.618;2022-09-09T02:08:52;6.38;;;1.23;;
72649;SDS011;61467;50.674;4.618;2022-09-09T02:11:22;5.43;;;1.00;;
72649;SDS011;61467;50.674;4.618;2022-09-09T02:13:52;6.97;;;1.45;;
72649;SDS011;61467;50.674;4.618;2022-09-09T02:19:25;6.97;;;1.57;;
72649;SDS011;61467;50.674;4.618;2022-09-09T02:21:56;7.68;;;1.50;;
72649;SDS011;61467;50.674;4.618;2022-09-09T02:24:25;8.77;;;1.40;;
72649;SDS011;61467;50.674;4.618;2022-09-09T02:26:53;7.05;;;1.30;;
72649;SDS011;61467;50.674;4.618;2022-09-09T02:29:24;7.93;;;1.50;;
72649;SDS011;61467;50.674;4.618;2022-09-09T02:31:54;6.33;;;1.37;;
72649;SDS011;61467;50.674;4.618;2022-09-09T02:34:25;5.30;;;0.82;;
72649;SDS011;61467;50.674;4.618;2022-09-09T02:36:55;7.20;;;1.10;;
72649;SDS011;61467;50.674;4.618;2022-09-09T02:39:23;9.32;;;1.27;;
72649;SDS011;61467;50.674;4.618;2022-09-09T02:41:50;9.25;;;1.73;;
72649;SDS011;61467;50.674;4.618;2022-09-09T02:44:17;8.27;;;1.30;;
72649;SDS011;61467;50.674;4.618;2022-09-09T02:46:53;9.65;;;2.22;;
72649;SDS011;61467;50.674;4.618;2022-09-09T02:49:33;7.57;;;1.55;;
72649;SDS011;61467;50.674;4.618;2022-09-09T02:52:07;7.75;;;1.20;;
72649;SDS011;61467;50.674;4.618;2022-09-09T02:54:38;5.72;;;1.63;;
72649;SDS011;61467;50.674;4.618;2022-09-09T02:57:06;7.03;;;1.47;;
72649;SDS011;61467;50.674;4.618;2022-09-09T02:59:37;7.53;;;1.23;;
72649;SDS011;61467;50.674;4.618;2022-09-09T03:02:05;6.43;;;1.02;;
72649;SDS011;61467;50.674;4.618;2022-09-09T03:04:32;6.68;;;1.90;;
72649;SDS011;61467;50.674;4.618;2022-09-09T03:06:59;8.40;;;1.20;;
72649;SDS011;61467;50.674;4.618;2022-09-09T03:09:25;8.27;;;1.13;;
72649;SDS011;61467;50.674;4.618;2022-09-09T03:11:52;8.60;;;1.50;;
72649;SDS011;61467;50.674;4.618;2022-09-09T03:14:20;8.68;;;1.20;;
72649;SDS011;61467;50.674;4.618;2022-09-09T03:16:49;8.35;;;1.60;;
72649;SDS011;61467;50.674;4.618;2022-09-09T03:19:17;8.07;;;1.40;;
72649;SDS011;61467;50.674;4.618;2022-09-09T03:21:44;7.03;;;0.90;;
72649;SDS011;61467;50.674;4.618;2022-09-09T03:24:11;6.63;;;1.38;;
72649;SDS011;61467;50.674;4.618;2022-09-09T03:26:38;5.13;;;1.13;;
72649;SDS011;61467;50.674;4.618;2022-09-09T03:29:05;7.50;;;1.25;;
72649;SDS011;61467;50.674;4.618;2022-09-09T03:31:32;8.57;;;1.55;;
72649;SDS011;61467;50.674;4.618;2022-09-09T03:33:59;5.40;;;1.00;;
72649;SDS011;61467;50.674;4.618;2022-09-09T03:36:27;9.07;;;1.38;;
72649;SDS011;61467;50.674;4.618;2022-09-09T03:38:54;9.27;;;0.98;;
72649;SDS011;61467;50.674;4.618;2022-09-09T03:41:21;6.80;;;1.30;;
72649;SDS011;61467;50.674;4.618;2022-09-09T03:43:49;10.23;;;1.20;;
72649;SDS011;61467;50.674;4.618;2022-09-09T03:46:15;6.03;;;1.37;;
72649;SDS011;61467;50.674;4.618;2022-09-09T03:48:42;11.18;;;1.20;;
72649;SDS011;61467;50.674;4.618;2022-09-09T03:51:10;6.70;;;1.42;;
72649;SDS011;61467;50.674;4.618;2022-09-09T03:53:38;10.10;;;1.52;;
72649;SDS011;61467;50.674;4.618;2022-09-09T03:56:05;8.80;;;1.90;;
72649;SDS011;61467;50.674;4.618;2022-09-09T03:58:35;7.77;;;1.50;;
72649;SDS011;61467;50.674;4.618;2022-09-09T04:01:03;9.20;;;1.88;;
72649;SDS011;61467;50.674;4.618;2022-09-09T04:03:33;5.88;;;1.40;;
72649;SDS011;61467;50.674;4.618;2022-09-09T04:06:00;9.35;;;1.50;;
72649;SDS011;61467;50.674;4.618;2022-09-09T04:08:28;8.43;;;1.77;;
72649;SDS011;61467;50.674;4.618;2022-09-09T04:10:58;9.97;;;2.37;;
72649;SDS011;61467;50.674;4.618;2022-09-09T04:13:26;6.05;;;1.50;;
72649;SDS011;61467;50.674;4.618;2022-09-09T04:15:54;6.78;;;1.35;;
72649;SDS011;61467;50.674;4.618;2022-09-09T04:18:22;8.05;;;1.77;;
72649;SDS011;61467;50.674;4.618;2022-09-09T04:20:50;8.32;;;1.73;;
72649;SDS011;61467;50.674;4.618;2022-09-09T04:23:17;7.93;;;1.70;;
72649;SDS011;61467;50.674;4.618;2022-09-09T04:25:45;8.43;;;1.88;;
72649;SDS011;61467;50.674;4.618;2022-09-09T04:28:14;9.65;;;1.55;;
72649;SDS011;61467;50.674;4.618;2022-09-09T04:30:42;7.38;;;1.70;;
72649;SDS011;61467;50.674;4.618;2022-09-09T04:33:09;6.82;;;1.50;;
72649;SDS011;61467;50.674;4.618;2022-09-09T04:35:38;10.07;;;2.13;;
72649;SDS011;61467;50.674;4.618;2022-09-09T04:38:05;7.25;;;2.35;;
72649;SDS011;61467;50.674;4.618;2022-09-09T04:40:34;11.10;;;2.30;;
72649;SDS011;61467;50.674;4.618;2022-09-09T04:43:01;6.18;;;1.70;;
72649;SDS011;61467;50.674;4.618;2022-09-09T04:45:31;9.35;;;2.13;;
72649;SDS011;61467;50.674;4.618;2022-09-09T04:47:58;14.53;;;2.57;;
72649;SDS011;61467;50.674;4.618;2022-09-09T04:50:25;8.68;;;2.17;;
72649;SDS011;61467;50.674;4.618;2022-09-09T04:52:51;9.57;;;2.03;;
72649;SDS011;61467;50.674;4.618;2022-09-09T04:55:18;9.98;;;2.72;;
72649;SDS011;61467;50.674;4.618;2022-09-09T04:57:46;8.00;;;2.03;;
72649;SDS011;61467;50.674;4.618;2022-09-09T05:00:13;13.30;;;2.50;;
72649;SDS011;61467;50.674;4.618;2022-09-09T05:02:43;9.05;;;1.75;;
72649;SDS011;61467;50.674;4.618;2022-09-09T05:05:10;6.53;;;1.80;;
72649;SDS011;61467;50.674;4.618;2022-09-09T05:07:37;12.90;;;3.38;;
72649;SDS011;61467;50.674;4.618;2022-09-09T05:10:04;7.75;;;2.25;;
72649;SDS011;61467;50.674;4.618;2022-09-09T05:12:31;8.87;;;1.90;;
72649;SDS011;61467;50.674;4.618;2022-09-09T05:14:57;9.07;;;2.25;;
72649;SDS011;61467;50.674;4.618;2022-09-09T05:17:24;8.52;;;1.98;;
72649;SDS011;61467;50.674;4.618;2022-09-09T05:19:52;8.82;;;1.80;;
72649;SDS011;61467;50.674;4.618;2022-09-09T05:22:19;8.80;;;1.88;;
72649;SDS011;61467;50.674;4.618;2022-09-09T05:24:48;8.70;;;1.90;;
72649;SDS011;61467;50.674;4.618;2022-09-09T05:27:16;9.27;;;1.73;;
72649;SDS011;61467;50.674;4.618;2022-09-09T05:29:44;9.63;;;1.98;;
72649;SDS011;61467;50.674;4.618;2022-09-09T05:32:11;10.02;;;1.58;;
72649;SDS011;61467;50.674;4.618;2022-09-09T05:34:38;11.00;;;1.70;;
72649;SDS011;61467;50.674;4.618;2022-09-09T05:37:06;7.67;;;1.90;;
72649;SDS011;61467;50.674;4.618;2022-09-09T05:39:33;8.73;;;1.60;;
72649;SDS011;61467;50.674;4.618;2022-09-09T05:42:01;9.35;;;1.65;;
72649;SDS011;61467;50.674;4.618;2022-09-09T05:44:30;9.15;;;1.55;;
72649;SDS011;61467;50.674;4.618;2022-09-09T05:46:59;8.90;;;1.48;;
72649;SDS011;61467;50.674;4.618;2022-09-09T05:49:26;8.33;;;1.40;;
72649;SDS011;61467;50.674;4.618;2022-09-09T05:51:53;9.02;;;1.70;;
72649;SDS011;61467;50.674;4.618;2022-09-09T05:54:21;9.48;;;2.15;;
72649;SDS011;61467;50.674;4.618;2022-09-09T05:56:47;8.70;;;1.50;;
72649;SDS011;61467;50.674;4.618;2022-09-09T05:59:17;5.32;;;1.48;;
72649;SDS011;61467;50.674;4.618;2022-09-09T06:01:44;9.70;;;1.80;;
72649;SDS011;61467;50.674;4.618;2022-09-09T06:04:11;10.38;;;1.90;;
72649;SDS011;61467;50.674;4.618;2022-09-09T06:06:41;8.38;;;1.80;;
72649;SDS011;61467;50.674;4.618;2022-09-09T06:09:08;7.43;;;1.45;;
72649;SDS011;61467;50.674;4.618;2022-09-09T06:11:38;8.50;;;1.70;;
72649;SDS011;61467;50.674;4.618;2022-09-09T06:14:06;6.97;;;1.73;;
72649;SDS011;61467;50.674;4.618;2022-09-09T06:16:33;10.52;;;1.52;;
72649;SDS011;61467;50.674;4.618;2022-09-09T06:19:00;11.13;;;1.48;;
72649;SDS011;61467;50.674;4.618;2022-09-09T06:21:29;6.32;;;1.40;;
72649;SDS011;61467;50.674;4.618;2022-09-09T06:23:57;8.65;;;1.48;;
72649;SDS011;61467;50.674;4.618;2022-09-09T06:26:24;7.10;;;1.27;;
72649;SDS011;61467;50.674;4.618;2022-09-09T06:28:54;8.60;;;1.45;;
72649;SDS011;61467;50.674;4.618;2022-09-09T06:31:25;9.27;;;1.73;;
72649;SDS011;61467;50.674;4.618;2022-09-09T06:33:55;7.95;;;1.27;;
72649;SDS011;61467;50.674;4.618;2022-09-09T06:36:23;8.85;;;1.73;;
72649;SDS011;61467;50.674;4.618;2022-09-09T06:38:52;8.10;;;1.17;;
72649;SDS011;61467;50.674;4.618;2022-09-09T06:41:19;10.90;;;2.00;;
72649;SDS011;61467;50.674;4.618;2022-09-09T06:43:48;11.05;;;1.73;;
72649;SDS011;61467;50.674;4.618;2022-09-09T06:46:17;12.55;;;1.30;;
72649;SDS011;61467;50.674;4.618;2022-09-09T06:48:45;10.25;;;1.83;;
72649;SDS011;61467;50.674;4.618;2022-09-09T06:51:12;10.13;;;1.63;;
72649;SDS011;61467;50.674;4.618;2022-09-09T06:53:41;10.30;;;1.98;;
72649;SDS011;61467;50.674;4.618;2022-09-09T06:56:19;11.43;;;1.98;;
72649;SDS011;61467;50.674;4.618;2022-09-09T06:58:48;7.07;;;1.60;;
72649;SDS011;61467;50.674;4.618;2022-09-09T07:01:18;9.43;;;1.73;;
72649;SDS011;61467;50.674;4.618;2022-09-09T07:03:46;10.27;;;1.57;;
72649;SDS011;61467;50.674;4.618;2022-09-09T07:06:15;9.63;;;2.03;;
72649;SDS011;61467;50.674;4.618;2022-09-09T07:08:43;7.22;;;1.30;;
72649;SDS011;61467;50.674;4.618;2022-09-09T07:11:10;10.68;;;1.90;;
72649;SDS011;61467;50.674;4.618;2022-09-09T07:13:38;8.38;;;2.10;;
72649;SDS011;61467;50.674;4.618;2022-09-09T07:16:05;8.00;;;1.30;;
72649;SDS011;61467;50.674;4.618;2022-09-09T07:18:35;10.30;;;1.75;;
72649;SDS011;61467;50.674;4.618;2022-09-09T07:21:02;6.93;;;1.20;;
72649;SDS011;61467;50.674;4.618;2022-09-09T07:23:30;6.90;;;1.40;;
72649;SDS011;61467;50.674;4.618;2022-09-09T07:25:57;7.15;;;1.40;;
72649;SDS011;61467;50.674;4.618;2022-09-09T07:28:24;8.60;;;1.30;;
72649;SDS011;61467;50.674;4.618;2022-09-09T07:30:53;7.95;;;1.58;;
72649;SDS011;61467;50.674;4.618;2022-09-09T07:33:20;8.00;;;1.55;;
72649;SDS011;61467;50.674;4.618;2022-09-09T07:35:48;10.10;;;1.60;;
72649;SDS011;61467;50.674;4.618;2022-09-09T07:38:15;10.38;;;1.42;;
72649;SDS011;61467;50.674;4.618;2022-09-09T07:40:42;9.43;;;1.40;;
72649;SDS011;61467;50.674;4.618;2022-09-09T07:43:08;9.07;;;1.55;;
72649;SDS011;61467;50.674;4.618;2022-09-09T07:45:35;8.40;;;1.40;;
72649;SDS011;61467;50.674;4.618;2022-09-09T07:48:03;7.88;;;1.42;;
72649;SDS011;61467;50.674;4.618;2022-09-09T07:50:30;9.57;;;1.73;;
72649;SDS011;61467;50.674;4.618;2022-09-09T07:52:58;7.80;;;1.43;;
72649;SDS011;61467;50.674;4.618;2022-09-09T07:55:25;8.60;;;1.80;;
72649;SDS011;61467;50.674;4.618;2022-09-09T07:57:55;8.25;;;2.00;;
72649;SDS011;61467;50.674;4.618;2022-09-09T08:00:22;7.32;;;1.60;;
72649;SDS011;61467;50.674;4.618;2022-09-09T08:02:49;9.68;;;1.70;;
72649;SDS011;61467;50.674;4.618;2022-09-09T08:05:15;8.43;;;1.73;;
72649;SDS011;61467;50.674;4.618;2022-09-09T08:07:43;8.90;;;1.70;;
72649;SDS011;61467;50.674;4.618;2022-09-09T08:10:12;7.38;;;1.80;;
72649;SDS011;61467;50.674;4.618;2022-09-09T08:12:39;9.68;;;2.40;;
72649;SDS011;61467;50.674;4.618;2022-09-09T08:15:06;8.60;;;1.75;;
72649;SDS011;61467;50.674;4.618;2022-09-09T08:17:33;9.83;;;1.83;;
72649;SDS011;61467;50.674;4.618;2022-09-09T08:20:02;8.93;;;1.60;;
72649;SDS011;61467;50.674;4.618;2022-09-09T08:22:31;7.57;;;1.58;;
72649;SDS011;61467;50.674;4.618;2022-09-09T08:24:59;10.05;;;1.50;;
72649;SDS011;61467;50.674;4.618;2022-09-09T08:27:28;7.40;;;1.42;;
72649;SDS011;61467;50.674;4.618;2022-09-09T08:29:55;7.37;;;1.93;;
72649;SDS011;61467;50.674;4.618;2022-09-09T08:32:22;10.75;;;1.50;;
72649;SDS011;61467;50.674;4.618;2022-09-09T08:34:48;8.13;;;1.30;;
72649;SDS011;61467;50.674;4.618;2022-09-09T08:37:16;8.60;;;1.40;;
72649;SDS011;61467;50.674;4.618;2022-09-09T08:39:42;11.85;;;2.38;;
72649;SDS011;61467;50.674;4.618;2022-09-09T08:42:24;6.80;;;1.50;;
72649;SDS011;61467;50.674;4.618;2022-09-09T08:45:14;9.18;;;1.80;;
72649;SDS011;61467;50.674;4.618;2022-09-09T08:47:50;7.10;;;1.52;;
72649;SDS011;61467;50.674;4.618;2022-09-09T08:50:25;6.90;;;1.60;;
72649;SDS011;61467;50.674;4.618;2022-09-09T08:52:55;6.78;;;1.40;;
72649;SDS011;61467;50.674;4.618;2022-09-09T08:55:27;10.17;;;1.90;;
72649;SDS011;61467;50.674;4.618;2022-09-09T08:58:06;9.23;;;2.00;;
72649;SDS011;61467;50.674;4.618;2022-09-09T09:00:40;10.43;;;2.45;;
72649;SDS011;61467;50.674;4.618;2022-09-09T09:03:14;9.40;;;2.08;;
72649;SDS011;61467;50.674;4.618;2022-09-09T09:05:46;9.00;;;1.90;;
72649;SDS011;61467;50.674;4.618;2022-09-09T09:08:29;8.07;;;1.80;;
72649;SDS011;61467;50.674;4.618;2022-09-09T09:11:03;12.02;;;1.90;;
72649;SDS011;61467;50.674;4.618;2022-09-09T09:13:33;6.03;;;1.60;;
72649;SDS011;61467;50.674;4.618;2022-09-09T09:16:12;7.35;;;1.85;;
72649;SDS011;61467;50.674;4.618;2022-09-09T09:18:43;10.00;;;2.15;;
72649;SDS011;61467;50.674;4.618;2022-09-09T09:21:12;9.80;;;1.80;;
72649;SDS011;61467;50.674;4.618;2022-09-09T09:23:45;7.18;;;1.63;;
72649;SDS011;61467;50.674;4.618;2022-09-09T09:26:17;8.85;;;2.20;;
72649;SDS011;61467;50.674;4.618;2022-09-09T09:28:46;7.75;;;1.85;;
72649;SDS011;61467;50.674;4.618;2022-09-09T09:31:13;8.18;;;2.00;;
72649;SDS011;61467;50.674;4.618;2022-09-09T09:33:43;9.60;;;1.70;;
72649;SDS011;61467;50.674;4.618;2022-09-09T09:36:14;9.07;;;1.80;;
72649;SDS011;61467;50.674;4.618;2022-09-09T09:38:51;7.93;;;2.05;;
72649;SDS011;61467;50.674;4.618;2022-09-09T09:41:28;8.82;;;1.83;;
72649;SDS011;61467;50.674;4.618;2022-09-09T09:43:57;7.35;;;1.40;;
72649;SDS011;61467;50.674;4.618;2022-09-09T09:46:25;7.07;;;1.90;;
72649;SDS011;61467;50.674;4.618;2022-09-09T09:48:59;9.23;;;1.92;;
72649;SDS011;61467;50.674;4.618;2022-09-09T09:51:27;9.07;;;1.88;;
72649;SDS011;61467;50.674;4.618;2022-09-09T09:54:02;8.45;;;1.98;;
72649;SDS011;61467;50.674;4.618;2022-09-09T09:56:34;7.78;;;1.80;;
72649;SDS011;61467;50.674;4.618;2022-09-09T09:59:03;8.87;;;2.20;;
72649;SDS011;61467;50.674;4.618;2022-09-09T10:01:31;9.52;;;2.15;;
72649;SDS011;61467;50.674;4.618;2022-09-09T10:04:00;7.82;;;2.15;;
72649;SDS011;61467;50.674;4.618;2022-09-09T10:06:31;10.10;;;1.90;;
72649;SDS011;61467;50.674;4.618;2022-09-09T10:08:59;9.32;;;2.20;;
72649;SDS011;61467;50.674;4.618;2022-09-09T10:11:37;7.37;;;2.00;;
72649;SDS011;61467;50.674;4.618;2022-09-09T10:14:18;10.20;;;2.08;;
72649;SDS011;61467;50.674;4.618;2022-09-09T10:17:02;8.75;;;2.00;;
72649;SDS011;61467;50.674;4.618;2022-09-09T10:19:38;9.43;;;2.13;;
72649;SDS011;61467;50.674;4.618;2022-09-09T10:22:12;11.90;;;2.53;;
72649;SDS011;61467;50.674;4.618;2022-09-09T10:24:54;8.40;;;1.93;;
72649;SDS011;61467;50.674;4.618;2022-09-09T10:27:35;8.25;;;2.63;;
72649;SDS011;61467;50.674;4.618;2022-09-09T10:30:12;9.40;;;2.60;;
72649;SDS011;61467;50.674;4.618;2022-09-09T10:32:46;8.93;;;2.08;;
72649;SDS011;61467;50.674;4.618;2022-09-09T10:35:30;9.00;;;2.25;;
72649;SDS011;61467;50.674;4.618;2022-09-09T10:38:10;10.43;;;2.37;;
72649;SDS011;61467;50.674;4.618;2022-09-09T10:40:42;9.75;;;2.08;;
72649;SDS011;61467;50.674;4.618;2022-09-09T10:43:29;8.32;;;2.50;;
72649;SDS011;61467;50.674;4.618;2022-09-09T10:46:08;9.82;;;2.70;;
72649;SDS011;61467;50.674;4.618;2022-09-09T10:48:43;10.50;;;3.22;;
72649;SDS011;61467;50.674;4.618;2022-09-09T10:51:23;11.53;;;3.27;;
72649;SDS011;61467;50.674;4.618;2022-09-09T10:54:06;8.75;;;2.28;;
72649;SDS011;61467;50.674;4.618;2022-09-09T10:56:44;8.93;;;2.28;;
72649;SDS011;61467;50.674;4.618;2022-09-09T10:59:22;7.95;;;2.35;;
72649;SDS011;61467;50.674;4.618;2022-09-09T11:01:53;8.98;;;2.63;;
72649;SDS011;61467;50.674;4.618;2022-09-09T11:04:26;16.07;;;2.37;;
72649;SDS011;61467;50.674;4.618;2022-09-09T11:06:59;11.98;;;1.98;;
72649;SDS011;61467;50.674;4.618;2022-09-09T11:09:32;9.52;;;2.20;;
72649;SDS011;61467;50.674;4.618;2022-09-09T11:12:02;8.68;;;2.40;;
72649;SDS011;61467;50.674;4.618;2022-09-09T11:14:31;13.13;;;2.75;;
72649;SDS011;61467;50.674;4.618;2022-09-09T11:17:03;8.90;;;2.00;;
72649;SDS011;61467;50.674;4.618;2022-09-09T11:19:35;7.28;;;2.20;;
72649;SDS011;61467;50.674;4.618;2022-09-09T11:22:06;10.05;;;2.10;;
72649;SDS011;61467;50.674;4.618;2022-09-09T11:24:40;9.70;;;2.42;;
72649;SDS011;61467;50.674;4.618;2022-09-09T11:27:10;7.93;;;2.10;;
72649;SDS011;61467;50.674;4.618;2022-09-09T11:29:49;9.10;;;1.83;;
72649;SDS011;61467;50.674;4.618;2022-09-09T11:32:51;8.10;;;2.20;;
72649;SDS011;61467;50.674;4.618;2022-09-09T11:35:53;8.02;;;1.80;;
72649;SDS011;61467;50.674;4.618;2022-09-09T11:38:27;8.25;;;1.83;;
72649;SDS011;61467;50.674;4.618;2022-09-09T11:40:58;10.70;;;2.10;;
72649;SDS011;61467;50.674;4.618;2022-09-09T11:43:28;8.40;;;2.20;;
72649;SDS011;61467;50.674;4.618;2022-09-09T11:45:58;9.07;;;2.20;;
72649;SDS011;61467;50.674;4.618;2022-09-09T11:48:33;9.02;;;2.42;;
72649;SDS011;61467;50.674;4.618;2022-09-09T11:51:02;7.28;;;1.65;;
72649;SDS011;61467;50.674;4.618;2022-09-09T11:53:32;9.10;;;1.92;;
72649;SDS011;61467;50.674;4.618;2022-09-09T11:56:00;12.33;;;2.07;;
72649;SDS011;61467;50.674;4.618;2022-09-09T11:58:39;6.13;;;1.90;;
72649;SDS011;61467;50.674;4.618;2022-09-09T12:01:14;6.25;;;1.85;;
72649;SDS011;61467;50.674;4.618;2022-09-09T12:04:09;7.68;;;1.80;;
72649;SDS011;61467;50.674;4.618;2022-09-09T12:06:44;8.52;;;1.98;;
72649;SDS011;61467;50.674;4.618;2022-09-09T12:09:16;10.93;;;2.47;;
72649;SDS011;61467;50.674;4.618;2022-09-09T12:11:46;7.82;;;1.77;;
72649;SDS011;61467;50.674;4.618;2022-09-09T12:14:19;8.75;;;1.58;;
72649;SDS011;61467;50.674;4.618;2022-09-09T12:16:47;9.80;;;2.42;;
72649;SDS011;61467;50.674;4.618;2022-09-09T12:19:17;6.20;;;1.70;;
72649;SDS011;61467;50.674;4.618;2022-09-09T12:21:48;6.00;;;1.43;;
72649;SDS011;61467;50.674;4.618;2022-09-09T12:24:22;9.50;;;1.90;;
72649;SDS011;61467;50.674;4.618;2022-09-09T12:26:58;7.38;;;2.00;;
72649;SDS011;61467;50.674;4.618;2022-09-09T12:29:33;6.38;;;1.48;;
72649;SDS011;61467;50.674;4.618;2022-09-09T12:32:09;10.52;;;2.33;;
72649;SDS011;61467;50.674;4.618;2022-09-09T12:34:40;9.27;;;1.50;;
72649;SDS011;61467;50.674;4.618;2022-09-09T12:37:13;5.63;;;1.73;;
72649;SDS011;61467;50.674;4.618;2022-09-09T12:39:45;7.57;;;1.77;;
72649;SDS011;61467;50.674;4.618;2022-09-09T12:42:19;7.55;;;1.42;;
72649;SDS011;61467;50.674;4.618;2022-09-09T12:44:53;8.20;;;1.98;;
72649;SDS011;61467;50.674;4.618;2022-09-09T12:47:22;8.37;;;1.50;;
72649;SDS011;61467;50.674;4.618;2022-09-09T12:49:58;6.70;;;1.25;;
72649;SDS011;61467;50.674;4.618;2022-09-09T12:52:26;6.75;;;1.35;;
72649;SDS011;61467;50.674;4.618;2022-09-09T12:54:57;6.15;;;1.50;;
72649;SDS011;61467;50.674;4.618;2022-09-09T12:57:26;5.72;;;1.38;;
72649;SDS011;61467;50.674;4.618;2022-09-09T13:00:04;6.87;;;1.30;;
72649;SDS011;61467;50.674;4.618;2022-09-09T13:02:47;6.60;;;1.60;;
72649;SDS011;61467;50.674;4.618;2022-09-09T13:05:18;6.60;;;1.40;;
72649;SDS011;61467;50.674;4.618;2022-09-09T13:07:47;6.57;;;1.20;;
72649;SDS011;61467;50.674;4.618;2022-09-09T13:10:14;5.45;;;1.52;;
72649;SDS011;61467;50.674;4.618;2022-09-09T13:12:46;6.67;;;1.03;;
72649;SDS011;61467;50.674;4.618;2022-09-09T13:15:16;5.90;;;1.60;;
72649;SDS011;61467;50.674;4.618;2022-09-09T13:17:54;5.90;;;1.40;;
72649;SDS011;61467;50.674;4.618;2022-09-09T13:20:23;5.25;;;1.10;;
72649;SDS011;61467;50.674;4.618;2022-09-09T13:22:51;4.90;;;1.20;;
72649;SDS011;61467;50.674;4.618;2022-09-09T13:25:21;7.37;;;1.23;;
72649;SDS011;61467;50.674;4.618;2022-09-09T13:27:54;7.07;;;1.50;;
72649;SDS011;61467;50.674;4.618;2022-09-09T13:30:24;6.57;;;1.45;;
72649;SDS011;61467;50.674;4.618;2022-09-09T13:33:05;7.40;;;1.40;;
72649;SDS011;61467;50.674;4.618;2022-09-09T13:35:46;8.00;;;1.73;;
72649;SDS011;61467;50.674;4.618;2022-09-09T13:38:15;4.73;;;1.50;;
72649;SDS011;61467;50.674;4.618;2022-09-09T13:40:51;5.95;;;1.27;;
72649;SDS011;61467;50.674;4.618;2022-09-09T13:43:20;6.40;;;1.40;;
72649;SDS011;61467;50.674;4.618;2022-09-09T13:45:55;6.18;;;1.38;;
72649;SDS011;61467;50.674;4.618;2022-09-09T13:48:24;6.22;;;1.48;;
72649;SDS011;61467;50.674;4.618;2022-09-09T13:50:57;6.87;;;1.40;;
72649;SDS011;61467;50.674;4.618;2022-09-09T13:53:25;5.60;;;1.25;;
72649;SDS011;61467;50.674;4.618;2022-09-09T13:55:53;5.75;;;1.50;;
72649;SDS011;61467;50.674;4.618;2022-09-09T13:58:20;6.72;;;1.38;;
72649;SDS011;61467;50.674;4.618;2022-09-09T14:00:47;4.85;;;1.42;;
72649;SDS011;61467;50.674;4.618;2022-09-09T14:03:14;6.63;;;1.30;;
72649;SDS011;61467;50.674;4.618;2022-09-09T14:05:44;5.90;;;1.27;;
72649;SDS011;61467;50.674;4.618;2022-09-09T14:08:20;6.45;;;1.58;;
72649;SDS011;61467;50.674;4.618;2022-09-09T14:10:51;7.47;;;1.20;;
72649;SDS011;61467;50.674;4.618;2022-09-09T14:13:23;5.40;;;1.35;;
72649;SDS011;61467;50.674;4.618;2022-09-09T14:15:50;5.53;;;1.20;;
72649;SDS011;61467;50.674;4.618;2022-09-09T14:18:19;5.38;;;0.90;;
72649;SDS011;61467;50.674;4.618;2022-09-09T14:20:47;6.95;;;1.50;;
72649;SDS011;61467;50.674;4.618;2022-09-09T14:23:16;4.75;;;1.10;;
72649;SDS011;61467;50.674;4.618;2022-09-09T14:25:52;8.50;;;1.52;;
72649;SDS011;61467;50.674;4.618;2022-09-09T14:28:37;6.63;;;1.10;;
72649;SDS011;61467;50.674;4.618;2022-09-09T14:31:18;6.18;;;1.15;;
72649;SDS011;61467;50.674;4.618;2022-09-09T14:33:49;4.82;;;0.98;;
72649;SDS011;61467;50.674;4.618;2022-09-09T14:36:17;6.50;;;1.38;;
72649;SDS011;61467;50.674;4.618;2022-09-09T14:38:46;5.68;;;1.10;;
72649;SDS011;61467;50.674;4.618;2022-09-09T14:41:15;4.53;;;1.00;;
72649;SDS011;61467;50.674;4.618;2022-09-09T14:44:05;7.50;;;0.98;;
72649;SDS011;61467;50.674;4.618;2022-09-09T14:46:35;4.82;;;0.95;;
72649;SDS011;61467;50.674;4.618;2022-09-09T14:49:02;6.25;;;0.90;;
72649;SDS011;61467;50.674;4.618;2022-09-09T14:51:36;3.38;;;0.88;;
72649;SDS011;61467;50.674;4.618;2022-09-09T14:54:20;6.40;;;1.20;;
72649;SDS011;61467;50.674;4.618;2022-09-09T14:56:49;3.55;;;0.70;;
72649;SDS011;61467;50.674;4.618;2022-09-09T14:59:16;6.95;;;1.30;;
72649;SDS011;61467;50.674;4.618;2022-09-09T15:01:43;6.53;;;1.02;;
72649;SDS011;61467;50.674;4.618;2022-09-09T15:04:12;6.22;;;1.10;;
72649;SDS011;61467;50.674;4.618;2022-09-09T15:06:42;8.00;;;1.27;;
72649;SDS011;61467;50.674;4.618;2022-09-09T15:09:12;7.20;;;1.67;;
72649;SDS011;61467;50.674;4.618;2022-09-09T15:11:49;8.98;;;1.30;;